sensor_id;sensor_type;location;lat;lon;timestamp;temperature;humidity
41876;DHT22;27555;50.808;4.402;2023-04-15T00:01:59;12.20;97.80
41876;DHT22;27555;50.808;4.402;2023-04-15T00:04:25;12.20;97.90
41876;DHT22;27555;50.808;4.402;2023-04-15T00:06:51;12.20;98.30
41876;DHT22;27555;50.808;4.402;2023-04-15T00:09:20;12.40;98.90
41876;DHT22;27555;50.808;4.402;2023-04-15T00:11:45;12.50;98.30
41876;DHT22;27555;50.808;4.402;2023-04-15T00:14:12;12.50;98.50
41876;DHT22;27555;50.808;4.402;2023-04-15T00:16:38;12.40;98.70
41876;DHT22;27555;50.808;4.402;2023-04-15T00:19:03;12.40;99.10
41876;DHT22;27555;50.808;4.402;2023-04-15T00:21:29;12.40;99.30
41876;DHT22;27555;50.808;4.402;2023-04-15T00:23:55;12.40;99.60
41876;DHT22;27555;50.808;4.402;2023-04-15T00:26:21;12.40;99.40
41876;DHT22;27555;50.808;4.402;2023-04-15T00:28:46;12.40;99.60
41876;DHT22;27555;50.808;4.402;2023-04-15T00:31:12;12.50;99.60
41876;DHT22;27555;50.808;4.402;2023-04-15T00:33:38;12.40;99.90
41876;DHT22;27555;50.808;4.402;2023-04-15T00:36:05;12.40;99.90
41876;DHT22;27555;50.808;4.402;2023-04-15T00:38:31;12.40;99.90
41876;DHT22;27555;50.808;4.402;2023-04-15T00:40:58;12.40;99.90
41876;DHT22;27555;50.808;4.402;2023-04-15T00:43:23;12.60;99.90
41876;DHT22;27555;50.808;4.402;2023-04-15T00:45:51;12.60;99.90
41876;DHT22;27555;50.808;4.402;2023-04-15T00:48:18;12.40;99.90
41876;DHT22;27555;50.808;4.402;2023-04-15T00:50:44;12.40;99.90
41876;DHT22;27555;50.808;4.402;2023-04-15T00:53:10;12.30;99.90
41876;DHT22;27555;50.808;4.402;2023-04-15T00:55:36;12.40;99.90
41876;DHT22;27555;50.808;4.402;2023-04-15T00:58:02;12.30;99.90
41876;DHT22;27555;50.808;4.402;2023-04-15T01:00:28;12.40;99.90
41876;DHT22;27555;50.808;4.402;2023-04-15T01:02:54;12.40;99.90
41876;DHT22;27555;50.808;4.402;2023-04-15T01:05:20;12.40;99.90
41876;DHT22;27555;50.808;4.402;2023-04-15T01:07:47;12.50;99.90
41876;DHT22;27555;50.808;4.402;2023-04-15T01:10:13;12.70;99.90
41876;DHT22;27555;50.808;4.402;2023-04-15T01:12:38;12.70;99.90
41876;DHT22;27555;50.808;4.402;2023-04-15T01:15:05;12.50;99.90
41876;DHT22;27555;50.808;4.402;2023-04-15T01:17:30;12.40;99.90
41876;DHT22;27555;50.808;4.402;2023-04-15T01:19:57;12.40;99.90
41876;DHT22;27555;50.808;4.402;2023-04-15T01:22:23;12.40;99.90
41876;DHT22;27555;50.808;4.402;2023-04-15T01:24:56;12.40;99.90
41876;DHT22;27555;50.808;4.402;2023-04-15T01:27:26;12.40;99.90
41876;DHT22;27555;50.808;4.402;2023-04-15T01:29:52;12.40;99.90
41876;DHT22;27555;50.808;4.402;2023-04-15T01:32:18;12.40;99.90
41876;DHT22;27555;50.808;4.402;2023-04-15T01:34:44;12.70;99.90
41876;DHT22;27555;50.808;4.402;2023-04-15T01:37:10;12.80;99.90
41876;DHT22;27555;50.808;4.402;2023-04-15T01:39:36;12.50;99.90
41876;DHT22;27555;50.808;4.402;2023-04-15T01:42:01;12.00;99.90
41876;DHT22;27555;50.808;4.402;2023-04-15T01:44:27;11.40;99.90
41876;DHT22;27555;50.808;4.402;2023-04-15T01:46:53;11.40;99.90
41876;DHT22;27555;50.808;4.402;2023-04-15T01:49:18;11.80;99.90
41876;DHT22;27555;50.808;4.402;2023-04-15T01:51:44;12.10;99.90
41876;DHT22;27555;50.808;4.402;2023-04-15T01:54:09;12.00;99.90
41876;DHT22;27555;50.808;4.402;2023-04-15T01:56:35;12.00;99.90
41876;DHT22;27555;50.808;4.402;2023-04-15T01:59:01;11.90;99.90
41876;DHT22;27555;50.808;4.402;2023-04-15T02:01:28;12.10;99.90
41876;DHT22;27555;50.808;4.402;2023-04-15T02:03:53;12.20;99.90
41876;DHT22;27555;50.808;4.402;2023-04-15T02:06:19;12.30;99.90
41876;DHT22;27555;50.808;4.402;2023-04-15T02:08:45;12.20;99.90
41876;DHT22;27555;50.808;4.402;2023-04-15T02:11:10;12.10;99.90
41876;DHT22;27555;50.808;4.402;2023-04-15T02:13:36;12.00;99.90
41876;DHT22;27555;50.808;4.402;2023-04-15T02:16:02;12.10;99.90
41876;DHT22;27555;50.808;4.402;2023-04-15T02:18:27;12.20;99.90
41876;DHT22;27555;50.808;4.402;2023-04-15T02:20:53;12.20;99.90
41876;DHT22;27555;50.808;4.402;2023-04-15T02:23:19;12.20;99.90
41876;DHT22;27555;50.808;4.402;2023-04-15T02:25:45;12.20;99.90
41876;DHT22;27555;50.808;4.402;2023-04-15T02:28:11;12.20;99.90
41876;DHT22;27555;50.808;4.402;2023-04-15T02:30:37;12.20;99.90
41876;DHT22;27555;50.808;4.402;2023-04-15T02:33:03;12.30;99.90
41876;DHT22;27555;50.808;4.402;2023-04-15T02:35:28;12.40;99.90
41876;DHT22;27555;50.808;4.402;2023-04-15T02:37:54;12.50;99.90
41876;DHT22;27555;50.808;4.402;2023-04-15T02:40:20;12.40;99.90
41876;DHT22;27555;50.808;4.402;2023-04-15T02:42:46;12.20;99.90
41876;DHT22;27555;50.808;4.402;2023-04-15T02:45:11;12.10;99.90
41876;DHT22;27555;50.808;4.402;2023-04-15T02:47:37;12.00;99.90
41876;DHT22;27555;50.808;4.402;2023-04-15T02:50:09;12.10;99.90
41876;DHT22;27555;50.808;4.402;2023-04-15T02:52:40;12.10;99.90
41876;DHT22;27555;50.808;4.402;2023-04-15T02:55:06;12.10;99.90
41876;DHT22;27555;50.808;4.402;2023-04-15T02:57:32;12.10;99.90
41876;DHT22;27555;50.808;4.402;2023-04-15T02:59:59;12.10;99.90
41876;DHT22;27555;50.808;4.402;2023-04-15T03:02:24;12.20;99.90
41876;DHT22;27555;50.808;4.402;2023-04-15T03:04:50;12.20;99.90
41876;DHT22;27555;50.808;4.402;2023-04-15T03:07:17;12.20;99.90
41876;DHT22;27555;50.808;4.402;2023-04-15T03:09:42;12.20;99.90
41876;DHT22;27555;50.808;4.402;2023-04-15T03:12:08;12.10;99.90
41876;DHT22;27555;50.808;4.402;2023-04-15T03:14:34;12.10;99.90
41876;DHT22;27555;50.808;4.402;2023-04-15T03:17:00;12.10;99.90
41876;DHT22;27555;50.808;4.402;2023-04-15T03:19:26;11.80;99.90
41876;DHT22;27555;50.808;4.402;2023-04-15T03:21:51;11.70;99.90
41876;DHT22;27555;50.808;4.402;2023-04-15T03:24:17;11.70;99.90
41876;DHT22;27555;50.808;4.402;2023-04-15T03:26:42;11.70;99.90
41876;DHT22;27555;50.808;4.402;2023-04-15T03:29:08;11.60;99.90
41876;DHT22;27555;50.808;4.402;2023-04-15T03:31:34;11.50;99.90
41876;DHT22;27555;50.808;4.402;2023-04-15T03:34:01;11.60;99.90
41876;DHT22;27555;50.808;4.402;2023-04-15T03:36:28;11.60;99.90
41876;DHT22;27555;50.808;4.402;2023-04-15T03:38:54;11.60;99.90
41876;DHT22;27555;50.808;4.402;2023-04-15T03:41:21;11.70;99.90
41876;DHT22;27555;50.808;4.402;2023-04-15T03:43:46;11.60;99.90
41876;DHT22;27555;50.808;4.402;2023-04-15T03:46:13;11.70;99.90
41876;DHT22;27555;50.808;4.402;2023-04-15T03:48:39;11.40;99.90
41876;DHT22;27555;50.808;4.402;2023-04-15T03:51:04;11.40;99.90
41876;DHT22;27555;50.808;4.402;2023-04-15T03:53:30;11.50;99.90
41876;DHT22;27555;50.808;4.402;2023-04-15T03:55:55;11.20;99.90
41876;DHT22;27555;50.808;4.402;2023-04-15T03:58:21;10.90;99.90
41876;DHT22;27555;50.808;4.402;2023-04-15T04:00:47;10.90;99.90
41876;DHT22;27555;50.808;4.402;2023-04-15T04:03:12;10.80;99.90
41876;DHT22;27555;50.808;4.402;2023-04-15T04:05:38;10.90;99.90
41876;DHT22;27555;50.808;4.402;2023-04-15T04:08:06;10.80;99.90
41876;DHT22;27555;50.808;4.402;2023-04-15T04:10:31;10.50;99.90
41876;DHT22;27555;50.808;4.402;2023-04-15T04:12:57;10.50;99.90
41876;DHT22;27555;50.808;4.402;2023-04-15T04:15:22;10.60;99.90
41876;DHT22;27555;50.808;4.402;2023-04-15T04:17:48;10.80;99.90
41876;DHT22;27555;50.808;4.402;2023-04-15T04:20:14;10.90;99.90
41876;DHT22;27555;50.808;4.402;2023-04-15T04:22:40;11.00;99.90
41876;DHT22;27555;50.808;4.402;2023-04-15T04:25:06;11.00;99.90
41876;DHT22;27555;50.808;4.402;2023-04-15T04:27:33;11.10;99.90
41876;DHT22;27555;50.808;4.402;2023-04-15T04:29:59;11.20;99.90
41876;DHT22;27555;50.808;4.402;2023-04-15T04:32:24;11.20;99.90
41876;DHT22;27555;50.808;4.402;2023-04-15T04:34:50;11.20;99.90
41876;DHT22;27555;50.808;4.402;2023-04-15T04:37:15;11.30;99.90
41876;DHT22;27555;50.808;4.402;2023-04-15T04:39:41;11.50;99.90
41876;DHT22;27555;50.808;4.402;2023-04-15T04:42:07;11.60;99.90
41876;DHT22;27555;50.808;4.402;2023-04-15T04:44:32;11.70;99.90
41876;DHT22;27555;50.808;4.402;2023-04-15T04:46:58;11.80;99.90
41876;DHT22;27555;50.808;4.402;2023-04-15T04:49:23;11.60;99.90
41876;DHT22;27555;50.808;4.402;2023-04-15T04:51:49;11.50;99.90
41876;DHT22;27555;50.808;4.402;2023-04-15T04:54:15;11.50;99.90
41876;DHT22;27555;50.808;4.402;2023-04-15T04:56:40;11.20;99.90
41876;DHT22;27555;50.808;4.402;2023-04-15T04:59:06;11.00;99.90
41876;DHT22;27555;50.808;4.402;2023-04-15T05:01:32;11.10;99.90
41876;DHT22;27555;50.808;4.402;2023-04-15T05:03:58;11.10;99.90
41876;DHT22;27555;50.808;4.402;2023-04-15T05:06:23;11.30;99.90
41876;DHT22;27555;50.808;4.402;2023-04-15T05:08:49;11.40;99.90
41876;DHT22;27555;50.808;4.402;2023-04-15T05:11:15;11.50;99.90
41876;DHT22;27555;50.808;4.402;2023-04-15T05:13:40;11.50;99.90
41876;DHT22;27555;50.808;4.402;2023-04-15T05:16:06;11.60;99.90
41876;DHT22;27555;50.808;4.402;2023-04-15T05:18:31;11.60;99.90
41876;DHT22;27555;50.808;4.402;2023-04-15T05:20:58;11.70;99.90
41876;DHT22;27555;50.808;4.402;2023-04-15T05:23:23;11.70;99.90
41876;DHT22;27555;50.808;4.402;2023-04-15T05:25:49;11.80;99.90
41876;DHT22;27555;50.808;4.402;2023-04-15T05:28:15;11.80;99.90
41876;DHT22;27555;50.808;4.402;2023-04-15T05:30:40;11.70;99.90
41876;DHT22;27555;50.808;4.402;2023-04-15T05:33:06;11.80;99.90
41876;DHT22;27555;50.808;4.402;2023-04-15T05:35:32;11.80;99.90
41876;DHT22;27555;50.808;4.402;2023-04-15T05:37:57;11.90;99.90
41876;DHT22;27555;50.808;4.402;2023-04-15T05:40:23;11.90;99.90
41876;DHT22;27555;50.808;4.402;2023-04-15T05:42:48;12.00;99.90
41876;DHT22;27555;50.808;4.402;2023-04-15T05:45:14;12.00;99.90
41876;DHT22;27555;50.808;4.402;2023-04-15T05:47:39;11.90;99.90
41876;DHT22;27555;50.808;4.402;2023-04-15T05:50:05;11.60;99.90
41876;DHT22;27555;50.808;4.402;2023-04-15T05:52:31;11.50;99.90
41876;DHT22;27555;50.808;4.402;2023-04-15T05:54:57;11.30;99.90
41876;DHT22;27555;50.808;4.402;2023-04-15T05:57:23;11.50;99.90
41876;DHT22;27555;50.808;4.402;2023-04-15T05:59:48;11.50;99.90
41876;DHT22;27555;50.808;4.402;2023-04-15T06:02:16;11.60;99.90
41876;DHT22;27555;50.808;4.402;2023-04-15T06:04:42;11.80;99.90
41876;DHT22;27555;50.808;4.402;2023-04-15T06:07:08;11.90;99.90
41876;DHT22;27555;50.808;4.402;2023-04-15T06:09:33;11.80;99.90
41876;DHT22;27555;50.808;4.402;2023-04-15T06:11:59;11.50;99.90
41876;DHT22;27555;50.808;4.402;2023-04-15T06:14:26;11.40;99.90
41876;DHT22;27555;50.808;4.402;2023-04-15T06:16:51;11.50;99.90
41876;DHT22;27555;50.808;4.402;2023-04-15T06:19:17;11.70;99.90
41876;DHT22;27555;50.808;4.402;2023-04-15T06:21:44;11.90;99.90
41876;DHT22;27555;50.808;4.402;2023-04-15T06:24:10;12.00;99.90
41876;DHT22;27555;50.808;4.402;2023-04-15T06:26:36;12.10;99.90
41876;DHT22;27555;50.808;4.402;2023-04-15T06:29:03;12.10;99.90
41876;DHT22;27555;50.808;4.402;2023-04-15T06:31:29;12.30;99.90
41876;DHT22;27555;50.808;4.402;2023-04-15T06:33:55;12.30;99.90
41876;DHT22;27555;50.808;4.402;2023-04-15T06:36:20;12.40;99.90
41876;DHT22;27555;50.808;4.402;2023-04-15T06:38:46;12.40;99.90
41876;DHT22;27555;50.808;4.402;2023-04-15T06:41:11;12.50;99.90
41876;DHT22;27555;50.808;4.402;2023-04-15T06:43:37;12.50;99.90
41876;DHT22;27555;50.808;4.402;2023-04-15T06:46:03;12.50;99.90
41876;DHT22;27555;50.808;4.402;2023-04-15T06:48:29;12.50;99.90
41876;DHT22;27555;50.808;4.402;2023-04-15T06:50:54;12.50;99.90
41876;DHT22;27555;50.808;4.402;2023-04-15T06:53:20;12.40;99.90
41876;DHT22;27555;50.808;4.402;2023-04-15T06:55:46;12.20;99.90
41876;DHT22;27555;50.808;4.402;2023-04-15T06:58:12;12.00;99.90
41876;DHT22;27555;50.808;4.402;2023-04-15T07:00:38;11.90;99.90
41876;DHT22;27555;50.808;4.402;2023-04-15T07:03:04;11.80;99.90
41876;DHT22;27555;50.808;4.402;2023-04-15T07:05:30;11.70;99.90
41876;DHT22;27555;50.808;4.402;2023-04-15T07:07:56;11.70;99.90
41876;DHT22;27555;50.808;4.402;2023-04-15T07:10:22;12.10;99.90
41876;DHT22;27555;50.808;4.402;2023-04-15T07:12:48;12.50;99.50
41876;DHT22;27555;50.808;4.402;2023-04-15T07:15:15;13.00;98.70
41876;DHT22;27555;50.808;4.402;2023-04-15T07:17:41;13.70;97.40
41876;DHT22;27555;50.808;4.402;2023-04-15T07:20:08;13.90;97.40
41876;DHT22;27555;50.808;4.402;2023-04-15T07:22:33;14.00;96.50
41876;DHT22;27555;50.808;4.402;2023-04-15T07:24:59;13.90;96.50
41876;DHT22;27555;50.808;4.402;2023-04-15T07:27:25;14.50;96.80
41876;DHT22;27555;50.808;4.402;2023-04-15T07:29:51;15.70;94.80
41876;DHT22;27555;50.808;4.402;2023-04-15T07:32:17;17.00;93.00
41876;DHT22;27555;50.808;4.402;2023-04-15T07:34:43;17.70;92.20
41876;DHT22;27555;50.808;4.402;2023-04-15T07:37:09;17.60;92.00
41876;DHT22;27555;50.808;4.402;2023-04-15T07:39:35;17.90;91.70
41876;DHT22;27555;50.808;4.402;2023-04-15T07:42:01;18.20;91.30
41876;DHT22;27555;50.808;4.402;2023-04-15T07:44:27;18.70;90.60
41876;DHT22;27555;50.808;4.402;2023-04-15T07:46:53;18.80;90.10
41876;DHT22;27555;50.808;4.402;2023-04-15T07:49:18;19.40;90.10
41876;DHT22;27555;50.808;4.402;2023-04-15T07:51:45;19.30;89.30
41876;DHT22;27555;50.808;4.402;2023-04-15T07:54:11;18.80;89.90
41876;DHT22;27555;50.808;4.402;2023-04-15T07:56:37;18.90;89.70
41876;DHT22;27555;50.808;4.402;2023-04-15T07:59:02;18.60;89.70
41876;DHT22;27555;50.808;4.402;2023-04-15T08:01:29;18.50;88.90
41876;DHT22;27555;50.808;4.402;2023-04-15T08:03:55;18.10;90.00
41876;DHT22;27555;50.808;4.402;2023-04-15T08:06:22;17.90;90.00
41876;DHT22;27555;50.808;4.402;2023-04-15T08:08:47;18.00;90.20
41876;DHT22;27555;50.808;4.402;2023-04-15T08:11:13;17.60;90.20
41876;DHT22;27555;50.808;4.402;2023-04-15T08:13:39;17.30;90.40
41876;DHT22;27555;50.808;4.402;2023-04-15T08:16:30;17.90;90.30
41876;DHT22;27555;50.808;4.402;2023-04-15T08:18:56;18.40;88.70
41876;DHT22;27555;50.808;4.402;2023-04-15T08:21:22;19.00;87.50
41876;DHT22;27555;50.808;4.402;2023-04-15T08:23:49;19.50;86.70
41876;DHT22;27555;50.808;4.402;2023-04-15T08:26:15;19.80;85.70
41876;DHT22;27555;50.808;4.402;2023-04-15T08:28:42;19.10;86.70
41876;DHT22;27555;50.808;4.402;2023-04-15T08:31:09;19.10;86.90
41876;DHT22;27555;50.808;4.402;2023-04-15T08:33:34;19.50;86.60
41876;DHT22;27555;50.808;4.402;2023-04-15T08:36:00;19.30;85.50
41876;DHT22;27555;50.808;4.402;2023-04-15T08:38:26;19.00;86.30
41876;DHT22;27555;50.808;4.402;2023-04-15T08:40:51;18.50;87.70
41876;DHT22;27555;50.808;4.402;2023-04-15T08:43:26;18.10;88.20
41876;DHT22;27555;50.808;4.402;2023-04-15T08:45:53;17.50;89.00
41876;DHT22;27555;50.808;4.402;2023-04-15T08:48:20;17.30;89.90
41876;DHT22;27555;50.808;4.402;2023-04-15T08:50:47;17.00;90.30
41876;DHT22;27555;50.808;4.402;2023-04-15T08:53:13;17.80;90.00
41876;DHT22;27555;50.808;4.402;2023-04-15T08:55:45;18.50;89.00
41876;DHT22;27555;50.808;4.402;2023-04-15T08:58:13;19.00;87.40
41876;DHT22;27555;50.808;4.402;2023-04-15T09:00:41;18.80;86.60
41876;DHT22;27555;50.808;4.402;2023-04-15T09:03:08;19.40;86.00
41876;DHT22;27555;50.808;4.402;2023-04-15T09:05:37;21.00;84.80
41876;DHT22;27555;50.808;4.402;2023-04-15T09:08:03;21.30;82.50
41876;DHT22;27555;50.808;4.402;2023-04-15T09:10:30;22.30;81.60
41876;DHT22;27555;50.808;4.402;2023-04-15T09:12:56;23.00;79.90
41876;DHT22;27555;50.808;4.402;2023-04-15T09:15:24;23.90;79.00
41876;DHT22;27555;50.808;4.402;2023-04-15T09:17:51;24.00;77.10
41876;DHT22;27555;50.808;4.402;2023-04-15T09:20:17;23.50;77.60
41876;DHT22;27555;50.808;4.402;2023-04-15T09:22:47;23.00;79.20
41876;DHT22;27555;50.808;4.402;2023-04-15T09:27:49;22.40;78.60
41876;DHT22;27555;50.808;4.402;2023-04-15T09:30:15;22.30;77.90
41876;DHT22;27555;50.808;4.402;2023-04-15T09:35:14;23.40;75.80
41876;DHT22;27555;50.808;4.402;2023-04-15T09:37:39;23.10;76.30
41876;DHT22;27555;50.808;4.402;2023-04-15T09:40:07;23.10;75.40
41876;DHT22;27555;50.808;4.402;2023-04-15T09:42:34;23.20;74.80
41876;DHT22;27555;50.808;4.402;2023-04-15T09:45:10;22.90;74.00
41876;DHT22;27555;50.808;4.402;2023-04-15T09:47:36;22.30;72.80
41876;DHT22;27555;50.808;4.402;2023-04-15T09:50:02;22.50;72.90
41876;DHT22;27555;50.808;4.402;2023-04-15T09:52:29;23.10;74.30
41876;DHT22;27555;50.808;4.402;2023-04-15T09:54:57;24.10;73.30
41876;DHT22;27555;50.808;4.402;2023-04-15T09:57:23;24.70;72.50
41876;DHT22;27555;50.808;4.402;2023-04-15T09:59:50;24.70;70.60
41876;DHT22;27555;50.808;4.402;2023-04-15T10:02:18;23.90;71.70
41876;DHT22;27555;50.808;4.402;2023-04-15T10:04:48;24.00;72.20
41876;DHT22;27555;50.808;4.402;2023-04-15T10:07:14;23.60;73.00
41876;DHT22;27555;50.808;4.402;2023-04-15T10:09:42;23.80;72.40
41876;DHT22;27555;50.808;4.402;2023-04-15T10:12:10;24.20;72.10
41876;DHT22;27555;50.808;4.402;2023-04-15T10:14:37;24.10;72.70
41876;DHT22;27555;50.808;4.402;2023-04-15T10:17:04;24.50;72.80
41876;DHT22;27555;50.808;4.402;2023-04-15T10:19:36;24.90;71.70
41876;DHT22;27555;50.808;4.402;2023-04-15T10:22:02;25.30;70.60
41876;DHT22;27555;50.808;4.402;2023-04-15T10:24:30;25.50;70.50
41876;DHT22;27555;50.808;4.402;2023-04-15T10:26:56;25.90;69.80
41876;DHT22;27555;50.808;4.402;2023-04-15T10:29:24;25.40;69.20
41876;DHT22;27555;50.808;4.402;2023-04-15T10:31:56;25.90;68.20
41876;DHT22;27555;50.808;4.402;2023-04-15T10:34:23;25.90;67.80
41876;DHT22;27555;50.808;4.402;2023-04-15T10:36:49;25.20;68.60
41876;DHT22;27555;50.808;4.402;2023-04-15T10:42:17;25.40;69.10
41876;DHT22;27555;50.808;4.402;2023-04-15T10:44:47;25.50;68.70
41876;DHT22;27555;50.808;4.402;2023-04-15T10:47:18;24.90;68.90
41876;DHT22;27555;50.808;4.402;2023-04-15T10:50:02;24.50;69.60
41876;DHT22;27555;50.808;4.402;2023-04-15T10:52:28;24.80;69.50
41876;DHT22;27555;50.808;4.402;2023-04-15T10:55:14;24.70;68.80
41876;DHT22;27555;50.808;4.402;2023-04-15T10:57:41;25.20;68.30
41876;DHT22;27555;50.808;4.402;2023-04-15T11:02:47;25.20;68.30
41876;DHT22;27555;50.808;4.402;2023-04-15T11:05:17;25.80;67.20
41876;DHT22;27555;50.808;4.402;2023-04-15T11:07:50;26.10;67.30
41876;DHT22;27555;50.808;4.402;2023-04-15T11:12:53;24.30;66.60
41876;DHT22;27555;50.808;4.402;2023-04-15T11:15:34;24.90;64.30
41876;DHT22;27555;50.808;4.402;2023-04-15T11:20:34;25.60;63.20
41876;DHT22;27555;50.808;4.402;2023-04-15T11:23:00;25.30;62.50
41876;DHT22;27555;50.808;4.402;2023-04-15T11:25:28;25.40;56.90
41876;DHT22;27555;50.808;4.402;2023-04-15T11:27:55;25.50;58.60
41876;DHT22;27555;50.808;4.402;2023-04-15T11:30:21;25.40;60.60
41876;DHT22;27555;50.808;4.402;2023-04-15T11:32:48;25.00;61.50
41876;DHT22;27555;50.808;4.402;2023-04-15T11:35:15;25.20;62.60
41876;DHT22;27555;50.808;4.402;2023-04-15T11:37:43;25.30;62.00
41876;DHT22;27555;50.808;4.402;2023-04-15T11:40:09;24.60;61.00
41876;DHT22;27555;50.808;4.402;2023-04-15T11:42:35;24.30;62.00
41876;DHT22;27555;50.808;4.402;2023-04-15T11:45:12;24.30;62.00
41876;DHT22;27555;50.808;4.402;2023-04-15T11:47:39;24.30;60.60
41876;DHT22;27555;50.808;4.402;2023-04-15T11:50:22;25.10;60.90
41876;DHT22;27555;50.808;4.402;2023-04-15T11:52:59;24.90;59.90
41876;DHT22;27555;50.808;4.402;2023-04-15T11:55:25;24.80;60.60
41876;DHT22;27555;50.808;4.402;2023-04-15T12:00:51;24.80;60.10
41876;DHT22;27555;50.808;4.402;2023-04-15T12:06:02;25.20;58.60
41876;DHT22;27555;50.808;4.402;2023-04-15T12:11:30;25.50;57.60
41876;DHT22;27555;50.808;4.402;2023-04-15T12:16:33;25.00;58.60
41876;DHT22;27555;50.808;4.402;2023-04-15T12:18:59;24.10;59.50
41876;DHT22;27555;50.808;4.402;2023-04-15T12:21:27;23.10;61.00
41876;DHT22;27555;50.808;4.402;2023-04-15T12:26:33;23.10;62.70
41876;DHT22;27555;50.808;4.402;2023-04-15T12:29:01;22.10;64.20
41876;DHT22;27555;50.808;4.402;2023-04-15T12:31:27;21.10;65.20
41876;DHT22;27555;50.808;4.402;2023-04-15T12:33:59;20.40;65.50
41876;DHT22;27555;50.808;4.402;2023-04-15T12:36:25;20.10;64.50
41876;DHT22;27555;50.808;4.402;2023-04-15T12:38:51;19.30;66.10
41876;DHT22;27555;50.808;4.402;2023-04-15T12:41:17;19.00;65.90
41876;DHT22;27555;50.808;4.402;2023-04-15T12:43:45;18.90;66.90
41876;DHT22;27555;50.808;4.402;2023-04-15T12:46:12;18.70;64.40
41876;DHT22;27555;50.808;4.402;2023-04-15T12:48:38;18.70;62.80
41876;DHT22;27555;50.808;4.402;2023-04-15T12:51:04;18.50;64.40
41876;DHT22;27555;50.808;4.402;2023-04-15T12:53:30;18.50;65.40
41876;DHT22;27555;50.808;4.402;2023-04-15T12:55:55;18.50;65.40
41876;DHT22;27555;50.808;4.402;2023-04-15T12:58:21;18.60;66.00
41876;DHT22;27555;50.808;4.402;2023-04-15T13:00:47;18.40;65.10
41876;DHT22;27555;50.808;4.402;2023-04-15T13:03:13;18.30;65.50
41876;DHT22;27555;50.808;4.402;2023-04-15T13:05:38;18.10;65.50
41876;DHT22;27555;50.808;4.402;2023-04-15T13:08:05;18.00;64.90
41876;DHT22;27555;50.808;4.402;2023-04-15T13:10:31;18.00;65.30
41876;DHT22;27555;50.808;4.402;2023-04-15T13:12:56;18.20;66.30
41876;DHT22;27555;50.808;4.402;2023-04-15T13:15:22;18.00;66.90
41876;DHT22;27555;50.808;4.402;2023-04-15T13:17:49;18.10;67.10
41876;DHT22;27555;50.808;4.402;2023-04-15T13:20:15;18.40;67.50
41876;DHT22;27555;50.808;4.402;2023-04-15T13:22:40;18.20;67.10
41876;DHT22;27555;50.808;4.402;2023-04-15T13:25:07;18.20;64.70
41876;DHT22;27555;50.808;4.402;2023-04-15T13:27:33;18.10;66.20
41876;DHT22;27555;50.808;4.402;2023-04-15T13:29:59;17.90;66.30
41876;DHT22;27555;50.808;4.402;2023-04-15T13:32:25;17.90;66.40
41876;DHT22;27555;50.808;4.402;2023-04-15T13:34:50;17.90;66.00
41876;DHT22;27555;50.808;4.402;2023-04-15T13:37:16;17.90;66.50
41876;DHT22;27555;50.808;4.402;2023-04-15T13:39:42;17.90;67.60
41876;DHT22;27555;50.808;4.402;2023-04-15T13:42:08;17.90;67.90
41876;DHT22;27555;50.808;4.402;2023-04-15T13:44:34;18.20;68.70
41876;DHT22;27555;50.808;4.402;2023-04-15T13:47:00;18.40;68.60
41876;DHT22;27555;50.808;4.402;2023-04-15T13:49:26;18.30;68.80
41876;DHT22;27555;50.808;4.402;2023-04-15T13:51:51;18.00;68.50
41876;DHT22;27555;50.808;4.402;2023-04-15T13:54:17;18.00;69.80
41876;DHT22;27555;50.808;4.402;2023-04-15T13:56:43;18.10;69.60
41876;DHT22;27555;50.808;4.402;2023-04-15T13:59:08;18.20;70.60
41876;DHT22;27555;50.808;4.402;2023-04-15T14:01:34;18.40;69.90
41876;DHT22;27555;50.808;4.402;2023-04-15T14:04:00;18.50;70.00
41876;DHT22;27555;50.808;4.402;2023-04-15T14:06:26;17.90;68.50
41876;DHT22;27555;50.808;4.402;2023-04-15T14:08:52;17.50;69.60
41876;DHT22;27555;50.808;4.402;2023-04-15T14:11:18;17.40;69.80
41876;DHT22;27555;50.808;4.402;2023-04-15T14:13:43;17.50;69.90
41876;DHT22;27555;50.808;4.402;2023-04-15T14:16:09;17.60;69.30
41876;DHT22;27555;50.808;4.402;2023-04-15T14:18:35;17.40;69.70
41876;DHT22;27555;50.808;4.402;2023-04-15T14:21:01;17.50;70.80
41876;DHT22;27555;50.808;4.402;2023-04-15T14:23:27;17.80;70.80
41876;DHT22;27555;50.808;4.402;2023-04-15T14:25:53;17.80;71.20
41876;DHT22;27555;50.808;4.402;2023-04-15T14:28:19;17.90;71.90
41876;DHT22;27555;50.808;4.402;2023-04-15T14:30:44;17.90;71.80
41876;DHT22;27555;50.808;4.402;2023-04-15T14:33:10;18.00;72.20
41876;DHT22;27555;50.808;4.402;2023-04-15T14:35:36;17.50;71.80
41876;DHT22;27555;50.808;4.402;2023-04-15T14:38:02;16.90;72.60
41876;DHT22;27555;50.808;4.402;2023-04-15T14:40:27;17.00;71.90
41876;DHT22;27555;50.808;4.402;2023-04-15T14:42:53;17.30;72.70
41876;DHT22;27555;50.808;4.402;2023-04-15T14:45:18;17.10;69.70
41876;DHT22;27555;50.808;4.402;2023-04-15T14:47:44;17.00;70.40
41876;DHT22;27555;50.808;4.402;2023-04-15T14:50:10;16.70;71.30
41876;DHT22;27555;50.808;4.402;2023-04-15T14:52:35;16.70;72.50
41876;DHT22;27555;50.808;4.402;2023-04-15T14:55:08;16.80;72.30
41876;DHT22;27555;50.808;4.402;2023-04-15T14:57:37;16.70;71.80
41876;DHT22;27555;50.808;4.402;2023-04-15T15:00:04;16.50;72.60
41876;DHT22;27555;50.808;4.402;2023-04-15T15:02:31;16.70;73.00
41876;DHT22;27555;50.808;4.402;2023-04-15T15:04:58;16.80;73.10
41876;DHT22;27555;50.808;4.402;2023-04-15T15:07:23;16.90;73.30
41876;DHT22;27555;50.808;4.402;2023-04-15T15:09:49;16.90;74.20
41876;DHT22;27555;50.808;4.402;2023-04-15T15:12:14;17.00;74.70
41876;DHT22;27555;50.808;4.402;2023-04-15T15:14:40;16.90;73.80
41876;DHT22;27555;50.808;4.402;2023-04-15T15:17:06;17.10;73.50
41876;DHT22;27555;50.808;4.402;2023-04-15T15:19:32;17.20;73.70
41876;DHT22;27555;50.808;4.402;2023-04-15T15:21:57;17.00;74.10
41876;DHT22;27555;50.808;4.402;2023-04-15T15:24:23;16.90;75.40
41876;DHT22;27555;50.808;4.402;2023-04-15T15:26:48;16.90;75.00
41876;DHT22;27555;50.808;4.402;2023-04-15T15:29:14;16.90;75.10
41876;DHT22;27555;50.808;4.402;2023-04-15T15:31:40;16.70;76.20
41876;DHT22;27555;50.808;4.402;2023-04-15T15:34:05;16.60;76.40
41876;DHT22;27555;50.808;4.402;2023-04-15T15:36:31;16.60;77.20
41876;DHT22;27555;50.808;4.402;2023-04-15T15:39:02;16.70;77.70
41876;DHT22;27555;50.808;4.402;2023-04-15T15:41:28;16.50;78.00
41876;DHT22;27555;50.808;4.402;2023-04-15T15:43:54;16.30;78.70
41876;DHT22;27555;50.808;4.402;2023-04-15T15:46:19;16.10;79.40
41876;DHT22;27555;50.808;4.402;2023-04-15T15:48:45;16.00;80.10
41876;DHT22;27555;50.808;4.402;2023-04-15T15:51:11;16.10;79.80
41876;DHT22;27555;50.808;4.402;2023-04-15T15:53:37;15.80;78.90
41876;DHT22;27555;50.808;4.402;2023-04-15T15:56:03;15.60;80.60